sensor_id;sensor_type;location;lat;lon;timestamp;P1;durP1;ratioP1;P2;durP2;ratioP2
22650;SDS011;11492;42.646;23.400;2023-04-24T00:00:07;10.80;;;4.90;;
22650;SDS011;11492;42.646;23.400;2023-04-24T00:02:40;14.85;;;4.55;;
22650;SDS011;11492;42.646;23.400;2023-04-24T00:05:11;14.85;;;5.18;;
22650;SDS011;11492;42.646;23.400;2023-04-24T00:07:37;9.18;;;4.50;;
22650;SDS011;11492;42.646;23.400;2023-04-24T00:10:03;11.05;;;4.45;;
22650;SDS011;11492;42.646;23.400;2023-04-24T00:12:28;10.20;;;4.47;;
22650;SDS011;11492;42.646;23.400;2023-04-24T00:14:54;11.60;;;4.95;;
22650;SDS011;11492;42.646;23.400;2023-04-24T00:17:20;16.20;;;4.88;;
22650;SDS011;11492;42.646;23.400;2023-04-24T00:19:46;8.75;;;4.45;;
22650;SDS011;11492;42.646;23.400;2023-04-24T00:22:12;11.98;;;4.70;;
22650;SDS011;11492;42.646;23.400;2023-04-24T00:24:39;11.07;;;5.15;;
22650;SDS011;11492;42.646;23.400;2023-04-24T00:27:05;16.10;;;5.07;;
22650;SDS011;11492;42.646;23.400;2023-04-24T00:29:30;8.15;;;4.50;;
22650;SDS011;11492;42.646;23.400;2023-04-24T00:31:56;9.75;;;4.80;;
22650;SDS011;11492;42.646;23.400;2023-04-24T00:34:22;10.85;;;4.82;;
22650;SDS011;11492;42.646;23.400;2023-04-24T00:36:47;13.60;;;4.90;;
22650;SDS011;11492;42.646;23.400;2023-04-24T00:39:15;14.43;;;4.95;;
22650;SDS011;11492;42.646;23.400;2023-04-24T00:41:41;13.73;;;5.45;;
22650;SDS011;11492;42.646;23.400;2023-04-24T00:44:06;12.63;;;5.22;;
22650;SDS011;11492;42.646;23.400;2023-04-24T00:46:32;16.83;;;4.85;;
22650;SDS011;11492;42.646;23.400;2023-04-24T00:48:58;10.15;;;5.20;;
22650;SDS011;11492;42.646;23.400;2023-04-24T00:51:24;11.15;;;5.38;;
22650;SDS011;11492;42.646;23.400;2023-04-24T00:53:49;9.48;;;5.03;;
22650;SDS011;11492;42.646;23.400;2023-04-24T00:56:16;12.25;;;5.20;;
22650;SDS011;11492;42.646;23.400;2023-04-24T00:58:42;7.20;;;4.85;;
22650;SDS011;11492;42.646;23.400;2023-04-24T01:01:08;12.38;;;5.63;;
22650;SDS011;11492;42.646;23.400;2023-04-24T01:03:34;13.88;;;5.68;;
22650;SDS011;11492;42.646;23.400;2023-04-24T01:06:02;10.82;;;5.32;;
22650;SDS011;11492;42.646;23.400;2023-04-24T01:08:29;11.38;;;4.90;;
22650;SDS011;11492;42.646;23.400;2023-04-24T01:10:55;12.45;;;5.00;;
22650;SDS011;11492;42.646;23.400;2023-04-24T01:13:22;9.80;;;4.85;;
22650;SDS011;11492;42.646;23.400;2023-04-24T01:15:47;18.42;;;5.07;;
22650;SDS011;11492;42.646;23.400;2023-04-24T01:18:13;13.20;;;5.55;;
22650;SDS011;11492;42.646;23.400;2023-04-24T01:20:40;9.65;;;5.15;;
22650;SDS011;11492;42.646;23.400;2023-04-24T01:23:07;13.30;;;4.95;;
22650;SDS011;11492;42.646;23.400;2023-04-24T01:25:33;12.73;;;5.40;;
22650;SDS011;11492;42.646;23.400;2023-04-24T01:27:59;10.48;;;5.10;;
22650;SDS011;11492;42.646;23.400;2023-04-24T01:30:26;10.95;;;5.60;;
22650;SDS011;11492;42.646;23.400;2023-04-24T01:32:52;16.70;;;5.32;;
22650;SDS011;11492;42.646;23.400;2023-04-24T01:35:18;10.80;;;5.43;;
22650;SDS011;11492;42.646;23.400;2023-04-24T01:37:43;10.20;;;5.50;;
22650;SDS011;11492;42.646;23.400;2023-04-24T01:40:09;12.98;;;5.35;;
22650;SDS011;11492;42.646;23.400;2023-04-24T01:42:35;12.13;;;5.63;;
22650;SDS011;11492;42.646;23.400;2023-04-24T01:45:01;16.38;;;5.57;;
22650;SDS011;11492;42.646;23.400;2023-04-24T01:47:28;10.55;;;5.63;;
22650;SDS011;11492;42.646;23.400;2023-04-24T01:49:55;10.77;;;5.35;;
22650;SDS011;11492;42.646;23.400;2023-04-24T01:52:21;11.27;;;5.63;;
22650;SDS011;11492;42.646;23.400;2023-04-24T01:54:46;15.88;;;6.25;;
22650;SDS011;11492;42.646;23.400;2023-04-24T01:57:12;15.18;;;6.57;;
22650;SDS011;11492;42.646;23.400;2023-04-24T01:59:39;10.75;;;5.97;;
22650;SDS011;11492;42.646;23.400;2023-04-24T02:02:05;20.92;;;6.93;;
22650;SDS011;11492;42.646;23.400;2023-04-24T02:04:30;14.77;;;6.50;;
22650;SDS011;11492;42.646;23.400;2023-04-24T02:06:56;14.93;;;7.13;;
22650;SDS011;11492;42.646;23.400;2023-04-24T02:09:22;13.80;;;6.90;;
22650;SDS011;11492;42.646;23.400;2023-04-24T02:11:47;12.07;;;6.93;;
22650;SDS011;11492;42.646;23.400;2023-04-24T02:14:12;12.15;;;6.07;;
22650;SDS011;11492;42.646;23.400;2023-04-24T02:16:38;13.85;;;7.25;;
22650;SDS011;11492;42.646;23.400;2023-04-24T02:19:03;18.27;;;6.88;;
22650;SDS011;11492;42.646;23.400;2023-04-24T02:21:29;15.00;;;7.47;;
22650;SDS011;11492;42.646;23.400;2023-04-24T02:23:56;14.45;;;8.02;;
22650;SDS011;11492;42.646;23.400;2023-04-24T02:26:21;22.40;;;8.23;;
22650;SDS011;11492;42.646;23.400;2023-04-24T02:28:47;13.52;;;7.70;;
22650;SDS011;11492;42.646;23.400;2023-04-24T02:31:12;15.68;;;8.23;;
22650;SDS011;11492;42.646;23.400;2023-04-24T02:33:38;19.30;;;8.68;;
22650;SDS011;11492;42.646;23.400;2023-04-24T02:36:03;15.80;;;8.30;;
22650;SDS011;11492;42.646;23.400;2023-04-24T02:38:29;17.90;;;8.88;;
22650;SDS011;11492;42.646;23.400;2023-04-24T02:40:54;15.40;;;8.10;;
22650;SDS011;11492;42.646;23.400;2023-04-24T02:43:20;15.80;;;8.30;;
22650;SDS011;11492;42.646;23.400;2023-04-24T02:45:45;16.65;;;8.18;;
22650;SDS011;11492;42.646;23.400;2023-04-24T02:48:11;15.45;;;7.68;;
22650;SDS011;11492;42.646;23.400;2023-04-24T02:50:36;15.27;;;8.48;;
22650;SDS011;11492;42.646;23.400;2023-04-24T02:53:02;16.35;;;9.07;;
22650;SDS011;11492;42.646;23.400;2023-04-24T02:55:28;18.92;;;8.05;;
22650;SDS011;11492;42.646;23.400;2023-04-24T02:57:53;15.68;;;8.73;;
22650;SDS011;11492;42.646;23.400;2023-04-24T03:00:19;14.80;;;8.27;;
22650;SDS011;11492;42.646;23.400;2023-04-24T03:02:44;17.42;;;9.02;;
22650;SDS011;11492;42.646;23.400;2023-04-24T03:05:09;22.48;;;8.93;;
22650;SDS011;11492;42.646;23.400;2023-04-24T03:07:37;20.20;;;9.25;;
22650;SDS011;11492;42.646;23.400;2023-04-24T03:10:02;25.60;;;8.90;;
22650;SDS011;11492;42.646;23.400;2023-04-24T03:12:29;24.83;;;9.10;;
22650;SDS011;11492;42.646;23.400;2023-04-24T03:14:55;23.40;;;9.05;;
22650;SDS011;11492;42.646;23.400;2023-04-24T03:17:20;18.80;;;9.27;;
22650;SDS011;11492;42.646;23.400;2023-04-24T03:19:46;22.38;;;9.52;;
22650;SDS011;11492;42.646;23.400;2023-04-24T03:22:11;23.25;;;9.25;;
22650;SDS011;11492;42.646;23.400;2023-04-24T03:24:37;24.30;;;9.55;;
22650;SDS011;11492;42.646;23.400;2023-04-24T03:27:02;19.45;;;8.85;;
22650;SDS011;11492;42.646;23.400;2023-04-24T03:29:28;15.90;;;8.23;;
22650;SDS011;11492;42.646;23.400;2023-04-24T03:31:53;18.83;;;8.90;;
22650;SDS011;11492;42.646;23.400;2023-04-24T03:34:19;17.60;;;9.30;;
22650;SDS011;11492;42.646;23.400;2023-04-24T03:36:44;15.93;;;8.80;;
22650;SDS011;11492;42.646;23.400;2023-04-24T03:39:12;17.73;;;9.25;;
22650;SDS011;11492;42.646;23.400;2023-04-24T03:41:37;17.10;;;9.40;;
22650;SDS011;11492;42.646;23.400;2023-04-24T03:44:03;21.05;;;9.25;;
22650;SDS011;11492;42.646;23.400;2023-04-24T03:46:28;19.60;;;8.68;;
22650;SDS011;11492;42.646;23.400;2023-04-24T03:48:54;20.23;;;8.82;;
22650;SDS011;11492;42.646;23.400;2023-04-24T03:51:20;18.15;;;8.95;;
22650;SDS011;11492;42.646;23.400;2023-04-24T03:53:45;20.05;;;9.10;;
22650;SDS011;11492;42.646;23.400;2023-04-24T03:56:10;18.60;;;9.10;;
22650;SDS011;11492;42.646;23.400;2023-04-24T03:58:36;15.38;;;8.60;;
22650;SDS011;11492;42.646;23.400;2023-04-24T04:01:01;23.08;;;8.52;;
22650;SDS011;11492;42.646;23.400;2023-04-24T04:03:27;13.65;;;8.40;;
22650;SDS011;11492;42.646;23.400;2023-04-24T04:05:52;28.08;;;8.60;;
22650;SDS011;11492;42.646;23.400;2023-04-24T04:08:19;17.58;;;8.48;;
22650;SDS011;11492;42.646;23.400;2023-04-24T04:10:44;16.73;;;8.15;;
22650;SDS011;11492;42.646;23.400;2023-04-24T04:13:10;18.50;;;8.57;;
22650;SDS011;11492;42.646;23.400;2023-04-24T04:15:35;14.32;;;8.90;;
22650;SDS011;11492;42.646;23.400;2023-04-24T04:18:01;21.13;;;9.07;;
22650;SDS011;11492;42.646;23.400;2023-04-24T04:20:26;17.55;;;8.82;;
22650;SDS011;11492;42.646;23.400;2023-04-24T04:22:51;22.33;;;9.82;;
22650;SDS011;11492;42.646;23.400;2023-04-24T04:25:17;23.90;;;8.65;;
22650;SDS011;11492;42.646;23.400;2023-04-24T04:27:44;20.67;;;9.57;;
22650;SDS011;11492;42.646;23.400;2023-04-24T04:30:12;18.10;;;9.15;;
22650;SDS011;11492;42.646;23.400;2023-04-24T04:32:38;22.63;;;8.65;;
22650;SDS011;11492;42.646;23.400;2023-04-24T04:35:04;15.88;;;8.30;;
22650;SDS011;11492;42.646;23.400;2023-04-24T04:37:30;19.98;;;8.07;;
22650;SDS011;11492;42.646;23.400;2023-04-24T04:39:57;22.45;;;11.18;;
22650;SDS011;11492;42.646;23.400;2023-04-24T04:42:26;15.70;;;8.00;;
22650;SDS011;11492;42.646;23.400;2023-04-24T04:44:55;25.92;;;7.68;;
22650;SDS011;11492;42.646;23.400;2023-04-24T04:47:22;19.67;;;8.45;;
22650;SDS011;11492;42.646;23.400;2023-04-24T04:49:48;18.17;;;8.10;;
22650;SDS011;11492;42.646;23.400;2023-04-24T04:52:14;19.63;;;7.40;;
22650;SDS011;11492;42.646;23.400;2023-04-24T04:54:39;19.88;;;7.93;;
22650;SDS011;11492;42.646;23.400;2023-04-24T04:57:05;17.55;;;7.80;;
22650;SDS011;11492;42.646;23.400;2023-04-24T04:59:30;17.73;;;8.18;;
22650;SDS011;11492;42.646;23.400;2023-04-24T05:01:56;18.35;;;8.50;;
22650;SDS011;11492;42.646;23.400;2023-04-24T05:04:21;27.35;;;8.52;;
22650;SDS011;11492;42.646;23.400;2023-04-24T05:06:47;25.10;;;8.18;;
22650;SDS011;11492;42.646;23.400;2023-04-24T05:09:12;19.60;;;7.65;;
22650;SDS011;11492;42.646;23.400;2023-04-24T05:11:37;25.30;;;8.23;;
22650;SDS011;11492;42.646;23.400;2023-04-24T05:14:03;16.75;;;7.57;;
22650;SDS011;11492;42.646;23.400;2023-04-24T05:16:28;21.10;;;7.72;;
22650;SDS011;11492;42.646;23.400;2023-04-24T05:18:55;22.38;;;6.88;;
22650;SDS011;11492;42.646;23.400;2023-04-24T05:21:20;16.63;;;6.93;;
22650;SDS011;11492;42.646;23.400;2023-04-24T05:23:46;15.68;;;7.30;;
22650;SDS011;11492;42.646;23.400;2023-04-24T05:26:12;16.30;;;6.97;;
22650;SDS011;11492;42.646;23.400;2023-04-24T05:28:38;15.95;;;6.40;;
22650;SDS011;11492;42.646;23.400;2023-04-24T05:31:03;24.92;;;6.28;;
22650;SDS011;11492;42.646;23.400;2023-04-24T05:33:29;15.15;;;6.18;;
22650;SDS011;11492;42.646;23.400;2023-04-24T05:35:55;13.98;;;6.78;;
22650;SDS011;11492;42.646;23.400;2023-04-24T05:38:21;22.63;;;6.85;;
22650;SDS011;11492;42.646;23.400;2023-04-24T05:40:46;24.08;;;6.88;;
22650;SDS011;11492;42.646;23.400;2023-04-24T05:43:12;14.30;;;6.57;;
22650;SDS011;11492;42.646;23.400;2023-04-24T05:45:37;17.80;;;6.63;;
22650;SDS011;11492;42.646;23.400;2023-04-24T05:48:03;13.13;;;6.85;;
22650;SDS011;11492;42.646;23.400;2023-04-24T05:50:29;19.83;;;6.68;;
22650;SDS011;11492;42.646;23.400;2023-04-24T05:52:55;15.98;;;6.18;;
22650;SDS011;11492;42.646;23.400;2023-04-24T05:55:23;18.95;;;8.25;;
22650;SDS011;11492;42.646;23.400;2023-04-24T05:57:48;15.07;;;7.18;;
22650;SDS011;11492;42.646;23.400;2023-04-24T06:00:14;22.02;;;7.43;;
22650;SDS011;11492;42.646;23.400;2023-04-24T06:02:39;16.75;;;7.53;;
22650;SDS011;11492;42.646;23.400;2023-04-24T06:05:05;17.10;;;6.57;;
22650;SDS011;11492;42.646;23.400;2023-04-24T06:07:31;17.60;;;8.07;;
22650;SDS011;11492;42.646;23.400;2023-04-24T06:09:56;21.52;;;7.75;;
22650;SDS011;11492;42.646;23.400;2023-04-24T06:12:22;23.20;;;8.27;;
22650;SDS011;11492;42.646;23.400;2023-04-24T06:14:48;20.73;;;8.27;;
22650;SDS011;11492;42.646;23.400;2023-04-24T06:17:13;22.67;;;7.93;;
22650;SDS011;11492;42.646;23.400;2023-04-24T06:19:39;25.52;;;9.20;;
22650;SDS011;11492;42.646;23.400;2023-04-24T06:22:05;23.15;;;8.55;;
22650;SDS011;11492;42.646;23.400;2023-04-24T06:24:30;20.77;;;7.97;;
22650;SDS011;11492;42.646;23.400;2023-04-24T06:26:56;19.33;;;8.00;;
22650;SDS011;11492;42.646;23.400;2023-04-24T06:29:22;26.75;;;8.48;;
22650;SDS011;11492;42.646;23.400;2023-04-24T06:31:48;25.27;;;8.63;;
22650;SDS011;11492;42.646;23.400;2023-04-24T06:34:13;23.58;;;7.80;;
22650;SDS011;11492;42.646;23.400;2023-04-24T06:36:39;16.63;;;7.72;;
22650;SDS011;11492;42.646;23.400;2023-04-24T06:39:04;22.52;;;8.60;;
22650;SDS011;11492;42.646;23.400;2023-04-24T06:41:30;22.35;;;8.45;;
22650;SDS011;11492;42.646;23.400;2023-04-24T06:43:55;20.48;;;8.40;;
22650;SDS011;11492;42.646;23.400;2023-04-24T06:46:21;26.15;;;9.35;;
22650;SDS011;11492;42.646;23.400;2023-04-24T06:48:51;21.42;;;7.82;;
22650;SDS011;11492;42.646;23.400;2023-04-24T06:51:20;24.85;;;9.50;;
22650;SDS011;11492;42.646;23.400;2023-04-24T06:53:47;19.48;;;8.25;;
22650;SDS011;11492;42.646;23.400;2023-04-24T06:56:12;20.02;;;7.80;;
22650;SDS011;11492;42.646;23.400;2023-04-24T06:58:38;33.53;;;9.40;;
22650;SDS011;11492;42.646;23.400;2023-04-24T07:01:03;16.35;;;8.68;;
22650;SDS011;11492;42.646;23.400;2023-04-24T07:03:28;20.65;;;8.00;;
22650;SDS011;11492;42.646;23.400;2023-04-24T07:05:54;16.00;;;7.53;;
22650;SDS011;11492;42.646;23.400;2023-04-24T07:08:20;21.70;;;7.57;;
22650;SDS011;11492;42.646;23.400;2023-04-24T07:10:46;17.13;;;7.43;;
22650;SDS011;11492;42.646;23.400;2023-04-24T07:13:13;16.55;;;7.82;;
22650;SDS011;11492;42.646;23.400;2023-04-24T07:15:39;22.00;;;7.65;;
22650;SDS011;11492;42.646;23.400;2023-04-24T07:18:05;20.98;;;7.93;;
22650;SDS011;11492;42.646;23.400;2023-04-24T07:20:31;24.70;;;7.50;;
22650;SDS011;11492;42.646;23.400;2023-04-24T07:22:56;18.80;;;7.70;;
22650;SDS011;11492;42.646;23.400;2023-04-24T07:25:22;23.60;;;8.10;;
22650;SDS011;11492;42.646;23.400;2023-04-24T07:27:47;16.88;;;7.78;;
22650;SDS011;11492;42.646;23.400;2023-04-24T07:30:14;18.38;;;7.22;;
22650;SDS011;11492;42.646;23.400;2023-04-24T07:32:39;18.83;;;7.22;;
22650;SDS011;11492;42.646;23.400;2023-04-24T07:35:05;21.30;;;7.50;;
22650;SDS011;11492;42.646;23.400;2023-04-24T07:37:31;16.05;;;6.95;;
22650;SDS011;11492;42.646;23.400;2023-04-24T07:39:56;10.68;;;7.00;;
22650;SDS011;11492;42.646;23.400;2023-04-24T07:42:22;18.10;;;7.95;;
22650;SDS011;11492;42.646;23.400;2023-04-24T07:44:47;24.58;;;7.35;;
22650;SDS011;11492;42.646;23.400;2023-04-24T07:47:13;13.95;;;6.65;;
22650;SDS011;11492;42.646;23.400;2023-04-24T07:49:41;16.88;;;6.60;;
22650;SDS011;11492;42.646;23.400;2023-04-24T07:52:07;12.10;;;5.70;;
22650;SDS011;11492;42.646;23.400;2023-04-24T07:54:33;20.65;;;6.70;;
22650;SDS011;11492;42.646;23.400;2023-04-24T07:56:58;25.42;;;6.75;;
22650;SDS011;11492;42.646;23.400;2023-04-24T07:59:23;18.05;;;6.50;;
22650;SDS011;11492;42.646;23.400;2023-04-24T08:01:49;15.60;;;6.93;;
22650;SDS011;11492;42.646;23.400;2023-04-24T08:04:14;26.00;;;6.18;;
22650;SDS011;11492;42.646;23.400;2023-04-24T08:06:40;15.10;;;5.10;;
22650;SDS011;11492;42.646;23.400;2023-04-24T08:09:05;13.68;;;5.18;;
22650;SDS011;11492;42.646;23.400;2023-04-24T08:11:31;20.60;;;5.93;;
22650;SDS011;11492;42.646;23.400;2023-04-24T08:13:57;17.73;;;5.20;;
22650;SDS011;11492;42.646;23.400;2023-04-24T08:16:22;17.33;;;6.65;;
22650;SDS011;11492;42.646;23.400;2023-04-24T08:18:51;15.77;;;5.45;;
22650;SDS011;11492;42.646;23.400;2023-04-24T08:21:16;11.05;;;5.07;;
22650;SDS011;11492;42.646;23.400;2023-04-24T08:23:43;12.23;;;5.32;;
22650;SDS011;11492;42.646;23.400;2023-04-24T08:26:12;14.68;;;5.30;;
22650;SDS011;11492;42.646;23.400;2023-04-24T08:28:38;18.17;;;5.68;;
22650;SDS011;11492;42.646;23.400;2023-04-24T08:31:03;15.60;;;5.35;;
22650;SDS011;11492;42.646;23.400;2023-04-24T08:33:29;12.10;;;4.65;;
22650;SDS011;11492;42.646;23.400;2023-04-24T08:35:59;16.60;;;4.78;;
22650;SDS011;11492;42.646;23.400;2023-04-24T08:38:29;13.77;;;4.40;;
22650;SDS011;11492;42.646;23.400;2023-04-24T08:40:56;17.40;;;4.70;;
22650;SDS011;11492;42.646;23.400;2023-04-24T08:43:23;17.20;;;4.68;;
22650;SDS011;11492;42.646;23.400;2023-04-24T08:45:51;13.10;;;4.00;;
22650;SDS011;11492;42.646;23.400;2023-04-24T08:48:17;15.25;;;4.63;;
22650;SDS011;11492;42.646;23.400;2023-04-24T08:50:43;13.63;;;4.20;;
22650;SDS011;11492;42.646;23.400;2023-04-24T08:53:09;15.73;;;4.20;;
22650;SDS011;11492;42.646;23.400;2023-04-24T08:55:35;12.38;;;4.45;;
22650;SDS011;11492;42.646;23.400;2023-04-24T08:58:02;9.32;;;4.28;;
22650;SDS011;11492;42.646;23.400;2023-04-24T09:00:28;11.75;;;4.00;;
22650;SDS011;11492;42.646;23.400;2023-04-24T09:02:54;14.52;;;3.78;;
22650;SDS011;11492;42.646;23.400;2023-04-24T09:05:21;8.27;;;4.00;;
22650;SDS011;11492;42.646;23.400;2023-04-24T09:07:55;9.80;;;4.00;;
22650;SDS011;11492;42.646;23.400;2023-04-24T09:10:24;10.43;;;3.97;;
22650;SDS011;11492;42.646;23.400;2023-04-24T09:12:51;10.73;;;4.85;;
22650;SDS011;11492;42.646;23.400;2023-04-24T09:15:18;14.15;;;5.03;;
22650;SDS011;11492;42.646;23.400;2023-04-24T09:17:45;14.70;;;4.25;;
22650;SDS011;11492;42.646;23.400;2023-04-24T09:20:11;9.30;;;4.10;;
22650;SDS011;11492;42.646;23.400;2023-04-24T09:22:36;7.75;;;4.13;;
22650;SDS011;11492;42.646;23.400;2023-04-24T09:25:02;10.90;;;4.40;;
22650;SDS011;11492;42.646;23.400;2023-04-24T09:27:30;10.48;;;3.92;;
22650;SDS011;11492;42.646;23.400;2023-04-24T09:29:57;9.40;;;3.70;;
22650;SDS011;11492;42.646;23.400;2023-04-24T09:32:23;12.18;;;3.97;;
22650;SDS011;11492;42.646;23.400;2023-04-24T09:35:12;9.88;;;3.40;;
22650;SDS011;11492;42.646;23.400;2023-04-24T09:37:40;11.95;;;3.80;;
22650;SDS011;11492;42.646;23.400;2023-04-24T09:45:09;14.30;;;3.60;;
22650;SDS011;11492;42.646;23.400;2023-04-24T09:47:36;13.05;;;3.70;;
22650;SDS011;11492;42.646;23.400;2023-04-24T09:50:15;8.35;;;3.70;;
22650;SDS011;11492;42.646;23.400;2023-04-24T09:52:42;6.68;;;3.42;;
22650;SDS011;11492;42.646;23.400;2023-04-24T09:55:19;13.70;;;3.83;;
22650;SDS011;11492;42.646;23.400;2023-04-24T10:00:17;8.75;;;3.17;;
22650;SDS011;11492;42.646;23.400;2023-04-24T10:05:30;8.48;;;3.35;;
22650;SDS011;11492;42.646;23.400;2023-04-24T10:08:18;12.60;;;4.05;;
22650;SDS011;11492;42.646;23.400;2023-04-24T10:10:44;11.05;;;3.60;;
22650;SDS011;11492;42.646;23.400;2023-04-24T10:13:11;11.80;;;3.60;;
22650;SDS011;11492;42.646;23.400;2023-04-24T10:15:38;8.05;;;2.90;;
22650;SDS011;11492;42.646;23.400;2023-04-24T10:18:05;7.43;;;3.50;;
22650;SDS011;11492;42.646;23.400;2023-04-24T10:20:32;9.23;;;3.58;;
22650;SDS011;11492;42.646;23.400;2023-04-24T10:22:58;15.35;;;3.78;;
22650;SDS011;11492;42.646;23.400;2023-04-24T10:25:26;8.73;;;3.10;;
22650;SDS011;11492;42.646;23.400;2023-04-24T10:27:56;6.10;;;3.08;;
22650;SDS011;11492;42.646;23.400;2023-04-24T10:30:25;8.85;;;3.50;;
22650;SDS011;11492;42.646;23.400;2023-04-24T10:32:54;9.63;;;3.28;;
22650;SDS011;11492;42.646;23.400;2023-04-24T10:35:22;11.73;;;3.90;;
22650;SDS011;11492;42.646;23.400;2023-04-24T10:37:56;12.40;;;3.13;;
22650;SDS011;11492;42.646;23.400;2023-04-24T10:40:30;7.80;;;3.08;;
22650;SDS011;11492;42.646;23.400;2023-04-24T10:42:59;9.60;;;3.25;;
22650;SDS011;11492;42.646;23.400;2023-04-24T10:45:27;6.63;;;3.22;;
22650;SDS011;11492;42.646;23.400;2023-04-24T10:48:05;6.35;;;3.10;;
22650;SDS011;11492;42.646;23.400;2023-04-24T10:50:46;7.03;;;3.60;;
22650;SDS011;11492;42.646;23.400;2023-04-24T10:53:19;7.78;;;3.75;;
22650;SDS011;11492;42.646;23.400;2023-04-24T10:55:49;7.38;;;3.70;;
22650;SDS011;11492;42.646;23.400;2023-04-24T10:58:16;13.75;;;3.90;;
22650;SDS011;11492;42.646;23.400;2023-04-24T11:00:55;7.50;;;3.65;;
22650;SDS011;11492;42.646;23.400;2023-04-24T11:03:28;8.40;;;3.90;;
22650;SDS011;11492;42.646;23.400;2023-04-24T11:05:55;8.07;;;3.40;;
22650;SDS011;11492;42.646;23.400;2023-04-24T11:08:22;10.90;;;3.72;;
22650;SDS011;11492;42.646;23.400;2023-04-24T11:11:03;7.68;;;3.47;;
22650;SDS011;11492;42.646;23.400;2023-04-24T11:16:28;10.55;;;3.22;;
22650;SDS011;11492;42.646;23.400;2023-04-24T11:21:32;9.60;;;3.42;;
22650;SDS011;11492;42.646;23.400;2023-04-24T11:26:50;18.08;;;3.08;;
22650;SDS011;11492;42.646;23.400;2023-04-24T11:29:37;8.10;;;3.10;;
22650;SDS011;11492;42.646;23.400;2023-04-24T11:34:51;8.50;;;3.13;;
22650;SDS011;11492;42.646;23.400;2023-04-24T11:37:19;11.93;;;3.55;;
22650;SDS011;11492;42.646;23.400;2023-04-24T11:39:44;7.15;;;3.30;;
22650;SDS011;11492;42.646;23.400;2023-04-24T11:42:10;11.85;;;3.80;;
22650;SDS011;11492;42.646;23.400;2023-04-24T11:44:38;12.57;;;3.83;;
22650;SDS011;11492;42.646;23.400;2023-04-24T11:47:06;12.65;;;3.03;;
22650;SDS011;11492;42.646;23.400;2023-04-24T11:49:36;13.75;;;3.40;;
22650;SDS011;11492;42.646;23.400;2023-04-24T11:52:02;6.40;;;2.80;;
22650;SDS011;11492;42.646;23.400;2023-04-24T11:54:29;4.43;;;2.67;;
22650;SDS011;11492;42.646;23.400;2023-04-24T11:56:55;4.97;;;2.38;;
22650;SDS011;11492;42.646;23.400;2023-04-24T11:59:22;3.53;;;2.00;;
22650;SDS011;11492;42.646;23.400;2023-04-24T12:01:48;6.28;;;2.70;;
22650;SDS011;11492;42.646;23.400;2023-04-24T12:04:15;5.10;;;2.55;;
22650;SDS011;11492;42.646;23.400;2023-04-24T12:07:15;2.97;;;2.13;;
22650;SDS011;11492;42.646;23.400;2023-04-24T12:09:40;7.45;;;2.60;;
22650;SDS011;11492;42.646;23.400;2023-04-24T12:12:07;5.88;;;2.20;;
22650;SDS011;11492;42.646;23.400;2023-04-24T12:14:41;7.28;;;3.00;;
22650;SDS011;11492;42.646;23.400;2023-04-24T12:17:07;5.18;;;2.53;;
22650;SDS011;11492;42.646;23.400;2023-04-24T12:19:33;4.15;;;2.58;;
22650;SDS011;11492;42.646;23.400;2023-04-24T12:21:59;3.67;;;2.15;;
22650;SDS011;11492;42.646;23.400;2023-04-24T12:24:25;7.55;;;3.17;;
22650;SDS011;11492;42.646;23.400;2023-04-24T12:26:51;7.68;;;2.88;;
22650;SDS011;11492;42.646;23.400;2023-04-24T12:29:20;7.50;;;2.70;;
22650;SDS011;11492;42.646;23.400;2023-04-24T12:31:46;4.80;;;2.50;;
22650;SDS011;11492;42.646;23.400;2023-04-24T12:34:21;6.68;;;2.60;;
22650;SDS011;11492;42.646;23.400;2023-04-24T12:36:48;6.20;;;3.20;;
22650;SDS011;11492;42.646;23.400;2023-04-24T12:39:17;3.72;;;2.97;;
22650;SDS011;11492;42.646;23.400;2023-04-24T12:41:50;4.78;;;3.00;;
22650;SDS011;11492;42.646;23.400;2023-04-24T12:44:28;5.25;;;2.63;;
22650;SDS011;11492;42.646;23.400;2023-04-24T12:46:59;12.35;;;2.83;;
22650;SDS011;11492;42.646;23.400;2023-04-24T12:49:24;6.70;;;2.80;;
22650;SDS011;11492;42.646;23.400;2023-04-24T12:51:50;9.07;;;3.10;;
22650;SDS011;11492;42.646;23.400;2023-04-24T12:54:16;7.70;;;3.42;;
22650;SDS011;11492;42.646;23.400;2023-04-24T12:56:41;5.90;;;3.30;;
22650;SDS011;11492;42.646;23.400;2023-04-24T12:59:07;6.38;;;3.35;;
22650;SDS011;11492;42.646;23.400;2023-04-24T13:01:32;8.82;;;3.35;;
22650;SDS011;11492;42.646;23.400;2023-04-24T13:03:58;9.07;;;3.63;;
22650;SDS011;11492;42.646;23.400;2023-04-24T13:06:23;10.30;;;3.22;;
22650;SDS011;11492;42.646;23.400;2023-04-24T13:08:48;5.28;;;3.40;;
22650;SDS011;11492;42.646;23.400;2023-04-24T13:11:14;11.65;;;4.40;;
22650;SDS011;11492;42.646;23.400;2023-04-24T13:13:39;12.07;;;4.60;;
22650;SDS011;11492;42.646;23.400;2023-04-24T13:16:05;8.05;;;4.20;;
22650;SDS011;11492;42.646;23.400;2023-04-24T13:18:30;12.80;;;4.22;;
22650;SDS011;11492;42.646;23.400;2023-04-24T13:20:56;11.80;;;5.70;;
22650;SDS011;11492;42.646;23.400;2023-04-24T13:23:22;9.02;;;4.45;;
22650;SDS011;11492;42.646;23.400;2023-04-24T13:25:48;8.55;;;4.20;;
22650;SDS011;11492;42.646;23.400;2023-04-24T13:28:13;13.15;;;3.97;;
22650;SDS011;11492;42.646;23.400;2023-04-24T13:30:38;9.43;;;4.00;;
22650;SDS011;11492;42.646;23.400;2023-04-24T13:33:04;7.13;;;4.05;;
22650;SDS011;11492;42.646;23.400;2023-04-24T13:35:30;6.95;;;3.65;;
22650;SDS011;11492;42.646;23.400;2023-04-24T13:37:55;13.38;;;4.03;;
22650;SDS011;11492;42.646;23.400;2023-04-24T13:40:21;12.27;;;4.13;;
22650;SDS011;11492;42.646;23.400;2023-04-24T13:42:46;8.25;;;4.10;;
22650;SDS011;11492;42.646;23.400;2023-04-24T13:45:12;7.97;;;3.88;;
22650;SDS011;11492;42.646;23.400;2023-04-24T13:47:37;15.30;;;5.13;;
22650;SDS011;11492;42.646;23.400;2023-04-24T13:50:06;10.40;;;3.70;;
22650;SDS011;11492;42.646;23.400;2023-04-24T13:52:33;8.38;;;4.03;;
22650;SDS011;11492;42.646;23.400;2023-04-24T13:54:58;6.75;;;4.45;;
22650;SDS011;11492;42.646;23.400;2023-04-24T13:57:24;7.75;;;4.65;;
22650;SDS011;11492;42.646;23.400;2023-04-24T13:59:49;12.35;;;4.70;;
22650;SDS011;11492;42.646;23.400;2023-04-24T14:02:15;12.20;;;4.45;;
22650;SDS011;11492;42.646;23.400;2023-04-24T14:04:40;9.20;;;4.13;;
22650;SDS011;11492;42.646;23.400;2023-04-24T14:07:06;10.88;;;4.40;;
22650;SDS011;11492;42.646;23.400;2023-04-24T14:09:32;8.48;;;3.33;;
22650;SDS011;11492;42.646;23.400;2023-04-24T14:11:58;6.13;;;3.40;;
22650;SDS011;11492;42.646;23.400;2023-04-24T14:14:23;8.10;;;2.85;;
22650;SDS011;11492;42.646;23.400;2023-04-24T14:16:49;5.32;;;2.80;;
22650;SDS011;11492;42.646;23.400;2023-04-24T14:19:14;4.70;;;2.55;;
22650;SDS011;11492;42.646;23.400;2023-04-24T14:21:39;6.85;;;2.55;;
22650;SDS011;11492;42.646;23.400;2023-04-24T14:24:05;8.32;;;3.08;;
22650;SDS011;11492;42.646;23.400;2023-04-24T14:26:31;7.38;;;2.70;;
22650;SDS011;11492;42.646;23.400;2023-04-24T14:28:56;4.80;;;2.58;;
22650;SDS011;11492;42.646;23.400;2023-04-24T14:31:23;5.85;;;2.55;;
22650;SDS011;11492;42.646;23.400;2023-04-24T14:33:49;5.93;;;2.60;;
22650;SDS011;11492;42.646;23.400;2023-04-24T14:36:14;5.63;;;2.80;;
22650;SDS011;11492;42.646;23.400;2023-04-24T14:38:40;9.20;;;3.83;;
22650;SDS011;11492;42.646;23.400;2023-04-24T14:41:05;6.22;;;2.80;;
22650;SDS011;11492;42.646;23.400;2023-04-24T14:43:34;6.78;;;3.45;;